createdAt,value
2017-05-22T05:04:29.711Z,78.43
2017-05-22T05:05:30.360Z,78.34
2017-05-22T05:06:31.035Z,78.24
2017-05-22T05:07:33.349Z,78.81
2017-05-22T05:08:34.053Z,78.43
2017-05-22T05:09:34.710Z,77.57
2017-05-22T05:10:35.732Z,77.57
2017-05-22T05:11:36.531Z,77.67
2017-05-22T05:12:37.304Z,77.09
2017-05-22T05:13:38.081Z,76.94
2017-05-22T05:14:38.815Z,76.65
2017-05-22T05:15:39.493Z,76.46
2017-05-22T05:16:40.175Z,75.98
2017-05-22T05:17:40.845Z,75.31
2017-05-22T05:18:41.520Z,75.41
2017-05-22T05:19:42.188Z,75.41
2017-05-22T05:20:42.863Z,75.22
2017-05-22T05:21:43.543Z,75.41
2017-05-22T05:22:44.214Z,75.12
2017-05-22T05:23:44.926Z,74.45
2017-05-22T05:24:45.606Z,73.97
2017-05-22T05:25:46.293Z,74.55
2017-05-22T05:26:46.955Z,73.88
2017-05-22T05:27:47.635Z,74.36
2017-05-22T05:28:48.315Z,73.4
2017-05-22T05:29:48.977Z,73.97
2017-05-22T05:30:49.675Z,73.97
2017-05-22T05:31:50.350Z,73.88
2017-05-22T05:32:51.045Z,73.79
2017-05-22T05:33:51.720Z,73.5
2017-05-22T05:34:52.391Z,73.3
2017-05-22T05:35:53.067Z,72.54
2017-05-22T05:36:53.758Z,72.63
2017-05-22T05:37:54.429Z,72.34
2017-05-22T05:38:55.110Z,72.44
2017-05-22T05:39:55.792Z,72.73
2017-05-22T05:40:56.453Z,72.54
2017-05-22T05:41:57.158Z,73.02
2017-05-22T05:42:57.828Z,73.3
2017-05-22T05:43:58.509Z,73.4
2017-05-22T05:44:59.180Z,72.92
2017-05-22T05:45:59.854Z,73.4
2017-05-22T05:47:00.574Z,73.4
2017-05-22T05:48:01.253Z,73.11
2017-05-22T05:49:01.929Z,73.3
2017-05-22T05:50:02.588Z,73.97
2017-05-22T05:51:03.266Z,73.79
2017-05-22T05:52:03.959Z,73.5
2017-05-22T05:53:04.730Z,72.92
2017-05-22T05:54:05.396Z,73.59
2017-05-22T05:55:06.076Z,73.88
2017-05-22T05:56:06.750Z,73.5
2017-05-22T05:57:07.424Z,74.45
2017-05-22T05:58:08.106Z,74.26
2017-05-22T05:59:08.817Z,74.26
2017-05-22T06:00:09.473Z,73.79
2017-05-22T06:01:10.145Z,74.07
2017-05-22T06:02:10.805Z,74.01
2017-05-22T06:03:11.474Z,73.05
2017-05-22T06:04:12.161Z,71.91
2017-05-22T06:05:12.883Z,72.19
2017-05-22T06:06:13.548Z,71.33
2017-05-22T06:07:14.219Z,71.81
2017-05-22T06:08:14.903Z,71.33
2017-05-22T06:09:15.584Z,71.52
2017-05-22T06:10:16.258Z,71.66
2017-05-22T06:11:16.920Z,71.17
2017-05-22T06:12:17.579Z,70.98
2017-05-22T06:13:18.255Z,70.79
2017-05-22T06:14:18.948Z,69.58
2017-05-22T06:15:19.682Z,70.15
2017-05-22T06:16:20.385Z,69.1
2017-05-22T06:17:21.053Z,68.24
2017-05-22T06:18:21.719Z,68.18
2017-05-22T06:19:22.396Z,67.41
2017-05-22T06:20:23.078Z,67.41
2017-05-22T06:21:23.739Z,66.74
2017-05-22T06:22:24.413Z,66.26
2017-05-22T06:23:25.086Z,66.06
2017-05-22T06:24:25.787Z,66.45
2017-05-22T06:25:26.476Z,66.58
2017-05-22T06:26:27.158Z,65.62
2017-05-22T06:27:27.832Z,64.95
2017-05-22T06:28:28.507Z,64.98
2017-05-22T06:29:29.214Z,64.4
2017-05-22T06:30:29.937Z,63.45
2017-05-22T06:31:30.669Z,62.32
2017-05-22T06:32:31.356Z,61.01
2017-05-22T06:33:32.079Z,59.5
2017-05-22T06:34:32.802Z,57.6
2017-05-22T06:35:33.497Z,57.9
2017-05-22T06:36:34.189Z,57.35
2017-05-22T06:37:34.871Z,55.65
2017-05-22T06:38:35.560Z,54.74
2017-05-22T06:39:36.248Z,52.73
2017-05-22T06:40:36.938Z,51.8
2017-05-22T06:41:37.623Z,51.22
2017-05-22T06:42:38.309Z,49.6
2017-05-22T06:43:39.010Z,50.28
2017-05-22T06:44:39.715Z,49.8
2017-05-22T06:45:40.407Z,49.34
2017-05-22T06:46:41.084Z,48.18
2017-05-22T06:47:41.779Z,47.5
2017-05-22T06:48:42.480Z,47.38
2017-05-22T06:49:43.162Z,48.28
2017-05-22T06:50:43.836Z,47.48
2017-05-22T06:51:44.523Z,47.67
2017-05-22T06:52:45.214Z,47.29
2017-05-22T06:53:45.901Z,46.75
2017-05-22T06:54:46.582Z,46.2
2017-05-22T06:55:47.265Z,45.16
2017-05-22T06:56:47.960Z,44.02
2017-05-22T06:57:48.652Z,43.07
2017-05-22T06:58:49.332Z,42.59
2017-05-22T06:59:50.020Z,41.52
2017-05-22T07:00:50.705Z,41.74
2017-05-22T07:01:51.422Z,41.93
2017-05-22T07:02:52.109Z,41.83
2017-05-22T07:03:52.796Z,41.74
2017-05-22T07:04:53.500Z,41.62
2017-05-22T07:05:54.183Z,41.64
2017-05-22T07:06:54.884Z,40.48
2017-05-22T07:07:55.587Z,40.77
2017-05-22T07:08:56.314Z,40.59
2017-05-22T07:09:56.998Z,39.92
2017-05-22T07:10:57.689Z,40.11
2017-05-22T07:11:58.378Z,39.92
2017-05-22T07:12:59.072Z,40
2017-05-22T07:13:59.763Z,39.97
2017-05-22T07:15:00.478Z,40.9
2017-05-22T07:16:01.184Z,41.97
2017-05-22T07:17:01.877Z,41.89
2017-05-22T07:18:02.575Z,41.14
2017-05-22T07:19:03.273Z,40.19
2017-05-22T07:20:03.985Z,39.72
2017-05-22T07:21:04.677Z,39.34
2017-05-22T07:22:05.351Z,38.78
2017-05-22T07:23:06.043Z,38.7
2017-05-22T07:24:06.751Z,38.31
2017-05-22T07:25:07.451Z,38.68
2017-05-22T07:26:08.146Z,40.36
2017-05-22T07:27:08.832Z,41.87
2017-05-22T07:28:09.531Z,42.18
2017-05-22T07:29:10.218Z,41.02
2017-05-22T07:30:10.911Z,40.92
2017-05-22T07:31:11.613Z,40.75
2017-05-22T07:32:12.304Z,40.48
2017-05-22T07:33:12.999Z,40.48
2017-05-22T07:34:13.693Z,39.78
2017-05-22T07:35:14.383Z,39.9
2017-05-22T07:36:15.062Z,39.32
2017-05-22T07:37:15.759Z,38.66
2017-05-22T07:38:16.436Z,38.56
2017-05-22T07:39:17.145Z,38.85
2017-05-22T07:40:17.839Z,38.68
2017-05-22T07:41:18.508Z,37.9
2017-05-22T07:42:19.204Z,38.29
2017-05-22T07:43:19.885Z,37.34
2017-05-22T07:44:20.589Z,37.92
2017-05-22T07:45:21.273Z,38.21
2017-05-22T07:46:21.974Z,37.82
2017-05-22T07:47:22.668Z,37.41
2017-05-22T07:48:23.384Z,37.34
2017-05-22T07:49:24.076Z,37.13
2017-05-22T07:50:24.778Z,37.61
2017-05-22T07:51:25.498Z,37.81
2017-05-22T07:52:26.192Z,37.03
2017-05-22T07:53:26.891Z,36.64
2017-05-22T07:54:27.599Z,37.13
2017-05-22T07:55:28.305Z,37.41
2017-05-22T07:56:28.997Z,37.21
2017-05-22T07:57:29.694Z,37.13
2017-05-22T07:58:30.398Z,36.85
2017-05-22T07:59:31.090Z,36.16
2017-05-22T08:00:31.782Z,36.54
2017-05-22T08:01:32.474Z,37.05
2017-05-22T08:02:33.182Z,37.61
2017-05-22T08:03:33.904Z,37.43
2017-05-22T08:04:34.594Z,36.46
2017-05-22T08:05:35.298Z,36.66
2017-05-22T08:06:35.995Z,36.95
2017-05-22T08:07:36.754Z,37.05
2017-05-22T08:08:37.400Z,37.24
2017-05-22T08:09:38.100Z,37.53
2017-05-22T08:10:38.801Z,36.16
2017-05-22T08:11:39.508Z,36.43
2017-05-22T08:12:40.195Z,36.82
2017-05-22T08:13:40.903Z,37.3
2017-05-22T08:14:41.611Z,36.33
2017-05-22T08:15:42.302Z,35.36
2017-05-22T08:16:43.012Z,35.86
2017-05-22T08:17:43.716Z,35.77
2017-05-22T08:18:44.418Z,36.14
2017-05-22T08:19:45.110Z,36.04
2017-05-22T08:20:45.790Z,36.14
2017-05-22T08:21:46.500Z,36.24
2017-05-22T08:22:47.189Z,36.54
2017-05-22T08:23:47.945Z,36.43
2017-05-22T08:24:48.634Z,36.33
2017-05-22T08:25:49.324Z,36.22
2017-05-22T08:26:50.033Z,36.33
2017-05-22T08:27:50.725Z,36.91
2017-05-22T08:28:51.421Z,36.43
2017-05-22T08:29:52.118Z,36.33
2017-05-22T08:30:52.816Z,36.91
2017-05-22T08:31:53.528Z,38.46
2017-05-22T08:32:54.218Z,36.44
2017-05-22T08:33:54.924Z,35.38
2017-05-22T08:34:55.652Z,35.19
2017-05-22T08:35:56.371Z,35.66
2017-05-22T08:36:57.053Z,36.43
2017-05-22T08:37:57.777Z,36.33
2017-05-22T08:38:58.488Z,36.52
2017-05-22T08:39:59.205Z,35.83
2017-05-22T08:40:59.900Z,36.41
2017-05-22T08:42:00.594Z,36.41
2017-05-22T08:43:01.297Z,37.57
2017-05-22T08:44:02.009Z,37.3
2017-05-22T08:45:02.700Z,36.52
2017-05-22T08:46:03.424Z,36.33
2017-05-22T08:47:04.146Z,36.14
2017-05-22T08:48:04.853Z,36.33
2017-05-22T08:49:05.557Z,36.82
2017-05-22T08:50:06.261Z,37.28
2017-05-22T08:51:06.966Z,37.48
2017-05-22T08:52:07.655Z,37.3
2017-05-22T08:53:08.378Z,37.21
2017-05-22T08:54:09.101Z,37.49
2017-05-22T08:55:09.790Z,37.59
2017-05-22T08:56:10.492Z,37.01
2017-05-22T08:57:11.214Z,37.38
2017-05-22T08:58:11.906Z,36.41
2017-05-22T08:59:12.592Z,36.99
2017-05-22T09:00:13.295Z,37.19
2017-05-22T09:01:14.014Z,37.38
2017-05-22T09:02:14.727Z,37.4
2017-05-22T09:03:15.453Z,37.79
2017-05-22T09:04:16.164Z,37.49
2017-05-22T09:05:16.868Z,37.13
2017-05-22T09:06:17.595Z,36.74
2017-05-22T09:07:18.298Z,35.88
2017-05-22T09:08:18.986Z,36.58
2017-05-22T09:09:19.688Z,36.48
2017-05-22T09:10:20.393Z,35.49
2017-05-22T09:11:21.103Z,34.99
2017-05-22T09:12:21.812Z,35.94
2017-05-22T09:13:22.531Z,36.43
2017-05-22T09:14:23.245Z,36.44
2017-05-22T09:15:23.956Z,35.94
2017-05-22T09:16:24.677Z,36.32
2017-05-22T09:17:25.378Z,37.38
2017-05-22T09:18:26.078Z,36.43
2017-05-22T09:19:26.778Z,36.54
2017-05-22T09:20:27.510Z,36.44
2017-05-22T09:21:28.204Z,36.54
2017-05-22T09:22:28.896Z,36.44
2017-05-22T09:23:29.622Z,35.27
2017-05-22T09:24:30.333Z,35.56
2017-05-22T09:25:31.034Z,35.07
2017-05-22T09:26:31.742Z,35.46
2017-05-22T09:27:32.452Z,36.43
2017-05-22T09:28:33.158Z,37.03
2017-05-22T09:29:33.858Z,37.11
2017-05-22T09:30:34.574Z,36.41
2017-05-22T09:31:35.275Z,35.85
2017-05-22T09:32:35.969Z,33.51
2017-05-22T09:33:36.684Z,31.97
2017-05-22T09:34:37.398Z,32.92
2017-05-22T09:35:38.123Z,33.8
2017-05-22T09:36:38.819Z,34.86
2017-05-22T09:37:39.530Z,34.75
2017-05-22T09:38:40.230Z,34.75
2017-05-22T09:39:40.940Z,35.81
2017-05-22T09:40:41.689Z,36.12
2017-05-22T09:41:42.409Z,35.44
2017-05-22T09:42:43.119Z,35.15
2017-05-22T09:43:43.816Z,35.25
2017-05-22T09:44:44.525Z,35.25
2017-05-22T09:45:45.227Z,33.22
2017-05-22T09:46:45.923Z,30.51
2017-05-22T09:47:46.630Z,29.15
2017-05-22T09:48:47.335Z,29.83
2017-05-22T09:49:48.026Z,31.46
2017-05-22T09:50:48.730Z,32.21
2017-05-22T09:51:49.450Z,33.86
2017-05-22T09:52:50.155Z,34.54
2017-05-22T09:53:50.854Z,35.7
2017-05-22T09:54:51.557Z,35.8
2017-05-22T09:55:52.257Z,34.34
2017-05-22T09:56:52.951Z,35
2017-05-22T09:57:53.691Z,34.52
2017-05-22T09:58:54.460Z,34.89
2017-05-22T09:59:55.220Z,34.5
2017-05-22T10:00:55.907Z,34.99
2017-05-22T10:01:56.610Z,33.05
2017-05-22T10:02:57.297Z,33.05
2017-05-22T10:03:58.000Z,32.94
2017-05-22T10:04:58.693Z,33.73
2017-05-22T10:05:59.404Z,31.8
2017-05-22T10:07:00.104Z,32.67
2017-05-22T10:08:00.835Z,31.41
2017-05-22T10:09:01.539Z,31.01
2017-05-22T10:10:02.274Z,32.76
2017-05-22T10:11:02.962Z,30.91
2017-05-22T10:12:03.659Z,30.14
2017-05-22T10:13:04.369Z,30.73
2017-05-22T10:14:05.052Z,31.89
2017-05-22T10:15:05.732Z,30.63
2017-05-22T10:16:06.430Z,31.59
2017-05-22T10:17:07.137Z,31.01
2017-05-22T10:18:07.830Z,30.82
2017-05-22T10:19:08.522Z,30.99
2017-05-22T10:20:09.224Z,31.86
2017-05-22T10:21:09.921Z,31.86
2017-05-22T10:22:10.607Z,32.24
2017-05-22T10:23:11.302Z,33.31
2017-05-22T10:24:11.985Z,32.92
2017-05-22T10:25:12.679Z,33.31
2017-05-22T10:26:13.367Z,34.28
2017-05-22T10:27:14.055Z,35.34
2017-05-22T10:28:14.743Z,36.29
2017-05-22T10:29:15.434Z,36.88
2017-05-22T10:30:16.123Z,37.08
2017-05-22T10:31:16.829Z,37.48
2017-05-22T10:32:17.526Z,38.35
2017-05-22T10:33:18.222Z,38.45
2017-05-22T10:34:18.928Z,38.64
2017-05-22T10:35:19.637Z,39.22
2017-05-22T10:36:20.330Z,38.53
2017-05-22T10:37:21.034Z,39.01
2017-05-22T10:38:21.727Z,38.62
2017-05-22T10:39:22.405Z,38.71
2017-05-22T10:40:23.101Z,39.29
2017-05-22T10:41:23.790Z,39.57
2017-05-22T10:42:24.521Z,38.6
2017-05-22T10:43:25.184Z,38.6
2017-05-22T10:44:25.873Z,39.18
2017-05-22T10:45:26.578Z,39.66
2017-05-22T10:46:27.267Z,39.57
2017-05-22T10:47:27.944Z,40.15
2017-05-22T10:48:28.636Z,40.44
2017-05-22T10:49:29.336Z,40.24
2017-05-22T10:50:30.028Z,41.78
2017-05-22T10:51:30.755Z,40.15
2017-05-22T10:52:31.432Z,40.53
2017-05-22T10:53:32.127Z,41.02
2017-05-22T10:54:32.819Z,41.69
2017-05-22T10:55:33.513Z,41.6
2017-05-22T10:56:34.204Z,41.2
2017-05-22T10:57:34.892Z,39.09
2017-05-22T10:58:35.583Z,38.6
2017-05-22T10:59:36.280Z,39.95
2017-05-22T11:00:36.963Z,40.15
2017-05-22T11:01:37.651Z,39.26
2017-05-22T11:02:38.344Z,39.64
2017-05-22T11:03:39.031Z,39.64
2017-05-22T11:04:39.744Z,40.34
2017-05-22T11:05:40.422Z,39.28
2017-05-22T11:06:41.126Z,39.09
2017-05-22T11:07:41.816Z,38.89
2017-05-22T11:08:42.485Z,38.51
2017-05-22T11:09:43.185Z,37.83
2017-05-22T11:10:43.876Z,38.21
2017-05-22T11:11:44.570Z,39.18
2017-05-22T11:12:45.260Z,39.66
2017-05-22T11:13:45.975Z,40.24
2017-05-22T11:14:46.661Z,40.24
2017-05-22T11:15:47.359Z,40.53
2017-05-22T11:16:48.095Z,39.57
2017-05-22T11:17:48.750Z,40.12
2017-05-22T11:18:49.441Z,40.12
2017-05-22T11:19:50.139Z,40.51
2017-05-22T11:20:50.821Z,41.28
2017-05-22T11:21:51.518Z,41.77
2017-05-22T11:22:52.198Z,41.4
2017-05-22T11:23:52.889Z,40.63
2017-05-22T11:24:53.585Z,40.51
2017-05-22T11:25:54.270Z,40.51
2017-05-22T11:26:54.972Z,41.09
2017-05-22T11:27:55.677Z,41.55
2017-05-22T11:28:56.368Z,41.48
2017-05-22T11:29:57.061Z,40.97
2017-05-22T11:30:57.772Z,40.88
2017-05-22T11:31:58.467Z,40.59
2017-05-22T11:32:59.140Z,40.39
2017-05-22T11:33:59.828Z,40.32
2017-05-22T11:35:00.512Z,40.12
2017-05-22T11:36:01.199Z,39.94
2017-05-22T11:37:01.910Z,40.34
2017-05-22T11:38:02.599Z,40.53
2017-05-22T11:39:03.292Z,39.76
2017-05-22T11:40:03.983Z,39.57
2017-05-22T11:41:04.672Z,39.66
2017-05-22T11:42:05.357Z,39.66
2017-05-22T11:43:06.040Z,39.09
2017-05-22T11:44:06.731Z,38.99
2017-05-22T11:45:07.425Z,38.7
2017-05-22T11:46:08.118Z,38.12
2017-05-22T11:47:08.802Z,38.31
2017-05-22T11:48:09.489Z,38.78
2017-05-22T11:49:10.167Z,38.68
2017-05-22T11:50:10.858Z,38.58
2017-05-22T11:51:11.544Z,39.26
2017-05-22T11:52:12.225Z,39.86
2017-05-22T11:53:12.938Z,39.66
2017-05-22T11:54:13.617Z,38.6
2017-05-22T11:55:14.300Z,39.47
2017-05-22T11:56:14.992Z,39.57
2017-05-22T11:57:15.665Z,39.57
2017-05-22T11:58:16.353Z,39.95
2017-05-22T11:59:17.050Z,39.57
2017-05-22T12:00:17.752Z,38.31
2017-05-22T12:01:18.452Z,38.41
2017-05-22T12:02:19.138Z,38.78
2017-05-22T12:03:19.840Z,38.29
2017-05-22T12:04:20.527Z,39.45
2017-05-22T12:05:21.231Z,39.45
2017-05-22T12:06:21.913Z,39.86
2017-05-22T12:07:22.607Z,40.53
2017-05-22T12:08:23.281Z,40.44
2017-05-22T12:09:24.012Z,40.63
2017-05-22T12:10:24.724Z,40.15
2017-05-22T12:11:25.429Z,39.06
2017-05-22T12:12:26.111Z,39.36
2017-05-22T12:13:26.795Z,40.8
2017-05-22T12:14:27.495Z,41.5
2017-05-22T12:15:28.176Z,40.99
2017-05-22T12:16:28.879Z,42.18
2017-05-22T12:17:29.575Z,41.5
2017-05-22T12:18:30.253Z,41.11
2017-05-22T12:19:30.939Z,39.76
2017-05-22T12:20:31.635Z,40.53
2017-05-22T12:21:32.318Z,40.53
2017-05-22T12:22:33.034Z,40.72
2017-05-22T12:23:33.715Z,41.2
2017-05-22T12:24:34.411Z,41.2
2017-05-22T12:25:35.097Z,41.78
2017-05-22T12:26:35.807Z,40.44
2017-05-22T12:27:36.489Z,39.47
2017-05-22T12:28:37.181Z,38.31
2017-05-22T12:29:37.879Z,38.51
2017-05-22T12:30:38.579Z,38.53
2017-05-22T12:31:39.288Z,37.95
2017-05-22T12:32:39.978Z,38.43
2017-05-22T12:33:40.652Z,38.43
2017-05-22T12:34:41.334Z,37.37
2017-05-22T12:35:42.013Z,36.79
2017-05-22T12:36:42.700Z,36.3
2017-05-22T12:37:43.395Z,36.3
2017-05-22T12:38:44.095Z,36.88
2017-05-22T12:39:44.793Z,37.08
2017-05-22T12:40:45.483Z,36.3
2017-05-22T12:41:46.179Z,36.21
2017-05-22T12:42:46.883Z,37.17
2017-05-22T12:43:47.571Z,36.21
2017-05-22T12:44:48.259Z,36.29
2017-05-22T12:45:48.981Z,36.29
2017-05-22T12:46:49.665Z,36.87
2017-05-22T12:47:50.364Z,36.96
2017-05-22T12:48:51.046Z,37.15
2017-05-22T12:49:51.752Z,36.57
2017-05-22T12:50:52.440Z,36.77
2017-05-22T12:51:53.133Z,36.19
2017-05-22T12:52:53.816Z,36.67
2017-05-22T12:53:54.514Z,36.29
2017-05-22T12:54:55.200Z,37.06
2017-05-22T12:55:55.881Z,37.15
2017-05-22T12:56:56.574Z,37.25
2017-05-22T12:57:57.262Z,38.21
2017-05-22T12:58:57.962Z,38.53
2017-05-22T12:59:58.669Z,37.17
2017-05-22T13:00:59.338Z,36.67
2017-05-22T13:02:00.021Z,37.73
2017-05-22T13:03:00.729Z,38.53
2017-05-22T13:04:01.426Z,38.23
2017-05-22T13:05:02.113Z,36.98
2017-05-22T13:06:02.790Z,37.46
2017-05-22T13:07:03.466Z,37.17
2017-05-22T13:08:04.174Z,37.17
2017-05-22T13:09:04.841Z,37.56
2017-05-22T13:10:05.524Z,37.25
2017-05-22T13:11:06.233Z,37.17
2017-05-22T13:12:06.935Z,37.27
2017-05-22T13:13:07.631Z,37.56
2017-05-22T13:14:08.312Z,37.46
2017-05-22T13:15:09.000Z,37.27
2017-05-22T13:16:09.688Z,36.88
2017-05-22T13:17:10.384Z,36.79
2017-05-22T13:18:11.082Z,36.98
2017-05-22T13:19:11.763Z,36.21
2017-05-22T13:20:12.463Z,36.98
2017-05-22T13:21:13.147Z,37.08
2017-05-22T13:22:13.834Z,37.56
2017-05-22T13:23:14.526Z,38.35
2017-05-22T13:24:15.210Z,37.38
2017-05-22T13:25:15.896Z,36.8
2017-05-22T13:26:16.591Z,37
2017-05-22T13:27:17.265Z,36.05
2017-05-22T13:28:17.952Z,35.95
2017-05-22T13:29:18.642Z,36.15
2017-05-22T13:30:19.330Z,35.37
2017-05-22T13:31:20.010Z,35.36
2017-05-22T13:32:20.692Z,34.78
2017-05-22T13:33:21.398Z,33.91
2017-05-22T13:34:22.094Z,34.39
2017-05-22T13:35:22.775Z,34.68
2017-05-22T13:36:23.480Z,34.87
2017-05-22T13:37:24.172Z,35.06
2017-05-22T13:38:24.858Z,35.45
2017-05-22T13:39:25.552Z,35.84
2017-05-22T13:40:26.230Z,35.26
2017-05-22T13:41:26.920Z,34.68
2017-05-22T13:42:27.640Z,34.29
2017-05-22T13:43:28.326Z,34.2
2017-05-22T13:44:29.008Z,34.97
2017-05-22T13:45:29.704Z,34.97
2017-05-22T13:46:30.391Z,35.36
2017-05-22T13:47:31.089Z,36.03
2017-05-22T13:48:31.765Z,36.03
2017-05-22T13:49:32.450Z,36.52
2017-05-22T13:50:33.132Z,36.22
2017-05-22T13:51:33.814Z,36.52
2017-05-22T13:52:34.522Z,37
2017-05-22T13:53:35.194Z,36.13
2017-05-22T13:54:35.886Z,35.36
2017-05-22T13:55:36.572Z,35.74
2017-05-22T13:56:37.259Z,35.84
2017-05-22T13:57:37.954Z,36.42
2017-05-22T13:58:38.644Z,35.76
2017-05-22T13:59:39.329Z,35.47
2017-05-22T14:00:40.027Z,35.47
2017-05-22T14:01:40.704Z,35.28
2017-05-22T14:02:41.376Z,35.06
2017-05-22T14:03:42.060Z,37.38
2017-05-22T14:04:42.734Z,35.45
2017-05-22T14:05:43.419Z,34
2017-05-22T14:06:44.129Z,34.39
2017-05-22T14:07:44.845Z,34.97
2017-05-22T14:08:45.556Z,35.06
2017-05-22T14:09:46.254Z,35.64
2017-05-22T14:10:46.942Z,35.84
2017-05-22T14:11:47.636Z,36.13
2017-05-22T14:12:48.324Z,36.42
2017-05-22T14:13:49.002Z,36.32
2017-05-22T14:14:49.719Z,36.32
2017-05-22T14:15:50.399Z,36.22
2017-05-22T14:16:51.093Z,36.61
2017-05-22T14:17:51.774Z,37.58
2017-05-22T14:18:52.454Z,37.19
2017-05-22T14:19:53.141Z,36.3
2017-05-22T14:20:53.834Z,36.3
2017-05-22T14:21:54.548Z,35.82
2017-05-22T14:22:55.237Z,35.44
2017-05-22T14:23:55.915Z,35.53
2017-05-22T14:24:56.614Z,35.72
2017-05-22T14:25:57.305Z,35.63
2017-05-22T14:26:57.982Z,36.03
2017-05-22T14:27:58.669Z,36.32
2017-05-22T14:28:59.343Z,37
2017-05-22T14:30:00.022Z,36.98
2017-05-22T14:31:00.707Z,35.72
2017-05-22T14:32:01.406Z,34.86
2017-05-22T14:33:02.090Z,34.86
2017-05-22T14:34:02.795Z,35.24
2017-05-22T14:35:03.491Z,36.4
2017-05-22T14:36:04.185Z,35.61
2017-05-22T14:37:04.859Z,36.29
2017-05-22T14:38:05.543Z,36.98
2017-05-22T14:39:06.228Z,36.98
2017-05-22T14:40:06.908Z,35.72
2017-05-22T14:41:07.637Z,36.11
2017-05-22T14:42:08.322Z,35.82
2017-05-22T14:43:09.040Z,36.21
2017-05-22T14:44:09.724Z,37.17
2017-05-22T14:45:10.415Z,36.3
2017-05-22T14:46:11.086Z,36.4
2017-05-22T14:47:11.778Z,37.27
2017-05-22T14:48:12.470Z,36.88
2017-05-22T14:49:13.151Z,36.69
2017-05-22T14:50:13.838Z,37.25
2017-05-22T14:51:14.525Z,37.45
2017-05-22T14:52:15.224Z,37.35
2017-05-22T14:53:15.887Z,37.73
2017-05-22T14:54:16.579Z,37.83
2017-05-22T14:55:17.272Z,37.25
2017-05-22T14:56:17.959Z,37.35
2017-05-22T14:57:18.649Z,37.63
2017-05-22T14:58:19.341Z,37.52
2017-05-22T14:59:20.033Z,38.1
2017-05-22T15:00:20.743Z,38.39
2017-05-22T15:01:21.425Z,38.39
2017-05-22T15:02:22.106Z,38.78
2017-05-22T15:03:22.810Z,38.97
2017-05-22T15:04:23.492Z,39.16
2017-05-22T15:05:24.184Z,38.78
2017-05-22T15:06:24.890Z,38.87
2017-05-22T15:07:25.581Z,38.87
2017-05-22T15:08:26.257Z,38.39
2017-05-22T15:09:26.940Z,38.51
2017-05-22T15:10:27.636Z,38.02
2017-05-22T15:11:28.302Z,38.31
2017-05-22T15:12:29.001Z,38.31
2017-05-22T15:13:29.677Z,37.83
2017-05-22T15:14:30.374Z,37.73
2017-05-22T15:15:31.055Z,38.12
2017-05-22T15:16:31.750Z,38.6
2017-05-22T15:17:32.423Z,38.31
2017-05-22T15:18:33.097Z,37.54
2017-05-22T15:19:33.775Z,37.73
2017-05-22T15:20:34.462Z,37.93
2017-05-22T15:21:35.151Z,38.29
2017-05-22T15:22:35.844Z,38.29
2017-05-22T15:23:36.531Z,38.31
2017-05-22T15:24:37.210Z,38.31
2017-05-22T15:25:37.906Z,38.02
2017-05-22T15:26:38.582Z,38.2
2017-05-22T15:27:39.273Z,38.2
2017-05-22T15:28:39.947Z,38.01
2017-05-22T15:29:40.636Z,38.29
2017-05-22T15:30:41.322Z,38.29
2017-05-22T15:31:42.013Z,38.29
2017-05-22T15:32:42.694Z,38.29
2017-05-22T15:33:43.375Z,38.39
2017-05-22T15:34:44.068Z,38.29
2017-05-22T15:35:44.746Z,38.56
2017-05-22T15:36:45.426Z,38.68
2017-05-22T15:37:46.106Z,38.68
2017-05-22T15:38:46.839Z,38.87
2017-05-22T15:39:47.516Z,38.78
2017-05-22T15:40:48.224Z,38.68
2017-05-22T15:41:48.907Z,39.16
2017-05-22T15:42:49.587Z,39.06
2017-05-22T15:43:50.273Z,38.78
2017-05-22T15:44:50.956Z,39.06
2017-05-22T15:45:51.654Z,39.26
2017-05-22T15:46:52.332Z,39.54
2017-05-22T15:47:53.026Z,38.97
2017-05-22T15:48:53.713Z,39.06
2017-05-22T15:49:54.412Z,39.34
2017-05-22T15:50:55.107Z,39.24
2017-05-22T15:51:55.781Z,39.26
2017-05-22T15:52:56.480Z,39.34
2017-05-22T15:53:57.175Z,39.36
2017-05-22T15:54:57.882Z,39.43
2017-05-22T15:55:58.583Z,39.43
2017-05-22T15:56:59.271Z,39.72
2017-05-22T15:57:59.988Z,39.62
2017-05-22T15:59:00.768Z,39.91
2017-05-22T16:00:01.484Z,40.01
2017-05-22T16:01:02.218Z,40.01
2017-05-22T16:02:02.913Z,39.91
2017-05-22T16:03:03.629Z,40.11
2017-05-22T16:04:04.316Z,39.91
2017-05-22T16:05:05.070Z,39.91
2017-05-22T16:06:05.864Z,40.11
2017-05-22T16:07:06.564Z,40.59
2017-05-22T16:08:07.239Z,40.39
2017-05-22T16:09:07.924Z,40.11
2017-05-22T16:10:08.609Z,40.59
2017-05-22T16:11:09.298Z,40.42
2017-05-22T16:12:09.998Z,39.94
2017-05-22T16:13:10.678Z,40.22
2017-05-22T16:14:11.371Z,40.22
2017-05-22T16:15:12.061Z,39.74
2017-05-22T16:16:12.744Z,40.22
2017-05-22T16:17:13.436Z,39.94
2017-05-22T16:18:14.143Z,39.91
2017-05-22T16:19:14.862Z,39.94
2017-05-22T16:20:15.564Z,39.74
2017-05-22T16:21:16.248Z,39.74
2017-05-22T16:22:16.938Z,39.54
2017-05-22T16:23:17.638Z,39.64
2017-05-22T16:24:18.334Z,39.62
2017-05-22T16:25:19.024Z,39.62
2017-05-22T16:26:19.724Z,39.72
2017-05-22T16:27:20.412Z,39.91
2017-05-22T16:28:21.097Z,39.91
2017-05-22T16:29:21.780Z,39.82
2017-05-22T16:30:22.476Z,40.01
2017-05-22T16:31:23.136Z,40.3
2017-05-22T16:32:23.811Z,41.17
2017-05-22T16:33:24.522Z,41.07
2017-05-22T16:34:25.211Z,40.97
2017-05-22T16:35:25.905Z,40.88
2017-05-22T16:36:26.588Z,41.07
2017-05-22T16:37:27.292Z,40.11
2017-05-22T16:38:27.965Z,40.49
2017-05-22T16:39:28.644Z,40.78
2017-05-22T16:40:29.385Z,41.27
2017-05-22T16:41:30.061Z,41.55
2017-05-22T16:42:30.732Z,41.07
2017-05-22T16:43:31.454Z,40.69
2017-05-22T16:44:32.143Z,41.17
2017-05-22T16:45:32.834Z,41.65
2017-05-22T16:46:33.629Z,41.17
2017-05-22T16:47:34.278Z,41.17
2017-05-22T16:48:34.952Z,41.36
2017-05-22T16:49:35.634Z,41.38
2017-05-22T16:50:36.347Z,41.17
2017-05-22T16:51:37.099Z,40.3
2017-05-22T16:52:37.781Z,40.32
2017-05-22T16:53:38.747Z,40.2
2017-05-22T16:54:39.491Z,40.2
2017-05-22T16:55:40.269Z,40.59
2017-05-22T16:56:40.939Z,40.49
2017-05-22T16:57:41.637Z,40.8
2017-05-22T16:58:42.330Z,40.69
2017-05-22T16:59:43.004Z,40.8
2017-05-22T17:00:43.876Z,40.3
2017-05-22T17:01:44.591Z,40.61
2017-05-22T17:02:45.276Z,40.39
2017-05-22T17:03:46.008Z,40.61
2017-05-22T17:04:46.716Z,40.69
2017-05-22T17:05:47.534Z,40.7
2017-05-22T17:06:48.219Z,40.78
2017-05-22T17:07:48.915Z,40.59
2017-05-22T17:08:49.597Z,40.88
2017-05-22T17:09:50.273Z,40.78
2017-05-22T17:10:50.953Z,40.78
2017-05-22T17:11:51.631Z,40.78
2017-05-22T17:12:52.328Z,41.07
2017-05-22T17:13:53.002Z,41.55
2017-05-22T17:14:53.694Z,41.65
2017-05-22T17:15:54.365Z,41.65
2017-05-22T17:16:55.168Z,41.65
2017-05-22T17:17:55.848Z,41.36
2017-05-22T17:18:56.524Z,41.92
2017-05-22T17:19:57.313Z,42.32
2017-05-22T17:20:57.899Z,42.4
2017-05-22T17:21:58.585Z,42.32
2017-05-22T17:22:59.258Z,42.4
2017-05-22T17:23:59.948Z,42.71
2017-05-22T17:25:00.671Z,42.8
2017-05-22T17:26:01.465Z,43
2017-05-22T17:27:02.146Z,42.8
2017-05-22T17:28:02.899Z,42.42
2017-05-22T17:29:03.589Z,42.52
2017-05-22T17:30:04.311Z,42.52
2017-05-22T17:31:05.011Z,42.42
2017-05-22T17:32:05.699Z,42.61
2017-05-22T17:33:06.383Z,42.23
2017-05-22T17:34:07.078Z,42.42
2017-05-22T17:35:07.766Z,42.42
2017-05-22T17:36:08.847Z,42.52
2017-05-22T17:37:09.572Z,42.9
2017-05-22T17:38:10.306Z,42.61
2017-05-22T17:39:19.231Z,43
2017-05-22T17:40:20.902Z,42.4
2017-05-22T17:41:21.970Z,42.71
2017-05-22T17:42:22.662Z,42.9
2017-05-22T17:43:23.835Z,42.79
2017-05-22T17:44:24.901Z,43.07
2017-05-22T17:45:25.831Z,43.37
2017-05-22T17:46:26.566Z,42.97
2017-05-22T17:47:27.373Z,43.07
2017-05-22T17:48:28.121Z,42.8
2017-05-22T17:49:28.837Z,43.1
2017-05-22T17:50:29.515Z,42.88
2017-05-22T17:51:30.298Z,43.87
2017-05-22T17:52:31.102Z,43.85
2017-05-22T17:53:31.845Z,43.77
2017-05-22T17:54:32.542Z,43.37
2017-05-22T17:55:33.235Z,43.37
2017-05-22T17:56:33.937Z,43.65
2017-05-22T17:57:34.634Z,43.65
2017-05-22T17:58:35.323Z,44.04
2017-05-22T17:59:36.010Z,44.23
2017-05-22T18:00:36.709Z,44.62
2017-05-22T18:01:37.403Z,44.23
2017-05-22T18:02:38.123Z,44.62
2017-05-22T18:03:38.803Z,44.71
2017-05-22T18:04:39.525Z,44.9
2017-05-22T18:05:40.215Z,45.1
2017-05-22T18:06:40.915Z,45.29
2017-05-22T18:07:41.600Z,45
2017-05-22T18:08:42.284Z,45.48
2017-05-22T18:09:42.978Z,45.39